sensor_id;sensor_type;location;lat;lon;timestamp;temperature;humidity
19847;DHT22;10084;50.518;8.588;2022-12-31T00:01:08;14.10;99.90
19847;DHT22;10084;50.518;8.588;2022-12-31T00:03:35;14.10;99.90
19847;DHT22;10084;50.518;8.588;2022-12-31T00:06:12;14.10;99.90
19847;DHT22;10084;50.518;8.588;2022-12-31T00:08:37;14.10;99.90
19847;DHT22;10084;50.518;8.588;2022-12-31T00:11:03;14.20;99.90
19847;DHT22;10084;50.518;8.588;2022-12-31T00:13:29;14.20;99.90
19847;DHT22;10084;50.518;8.588;2022-12-31T00:15:54;14.20;99.90
19847;DHT22;10084;50.518;8.588;2022-12-31T00:18:20;14.20;99.90
19847;DHT22;10084;50.518;8.588;2022-12-31T00:20:46;14.10;99.90
19847;DHT22;10084;50.518;8.588;2022-12-31T00:23:11;14.20;99.90
19847;DHT22;10084;50.518;8.588;2022-12-31T00:25:37;14.10;99.90
19847;DHT22;10084;50.518;8.588;2022-12-31T00:28:04;14.10;99.90
19847;DHT22;10084;50.518;8.588;2022-12-31T00:30:30;14.10;99.90
19847;DHT22;10084;50.518;8.588;2022-12-31T00:32:56;14.10;99.90
19847;DHT22;10084;50.518;8.588;2022-12-31T00:35:21;14.10;99.90
19847;DHT22;10084;50.518;8.588;2022-12-31T00:37:47;14.10;99.90
19847;DHT22;10084;50.518;8.588;2022-12-31T00:40:15;14.10;99.90
19847;DHT22;10084;50.518;8.588;2022-12-31T00:42:40;14.10;99.90
19847;DHT22;10084;50.518;8.588;2022-12-31T00:45:06;14.20;99.90
19847;DHT22;10084;50.518;8.588;2022-12-31T00:47:32;14.10;99.90
19847;DHT22;10084;50.518;8.588;2022-12-31T00:49:58;14.10;99.90
19847;DHT22;10084;50.518;8.588;2022-12-31T00:52:24;14.10;99.90
19847;DHT22;10084;50.518;8.588;2022-12-31T00:54:49;14.10;99.90
19847;DHT22;10084;50.518;8.588;2022-12-31T00:57:15;14.10;99.90
19847;DHT22;10084;50.518;8.588;2022-12-31T00:59:41;14.10;99.90
19847;DHT22;10084;50.518;8.588;2022-12-31T01:02:07;14.10;99.90
19847;DHT22;10084;50.518;8.588;2022-12-31T01:04:32;14.10;99.90
19847;DHT22;10084;50.518;8.588;2022-12-31T01:06:58;14.20;99.90
19847;DHT22;10084;50.518;8.588;2022-12-31T01:09:23;14.20;99.90
19847;DHT22;10084;50.518;8.588;2022-12-31T01:11:50;14.20;99.90
19847;DHT22;10084;50.518;8.588;2022-12-31T01:14:17;14.20;99.90
19847;DHT22;10084;50.518;8.588;2022-12-31T01:16:49;14.20;99.90
19847;DHT22;10084;50.518;8.588;2022-12-31T01:19:20;14.20;99.90
19847;DHT22;10084;50.518;8.588;2022-12-31T01:21:48;14.30;99.90
19847;DHT22;10084;50.518;8.588;2022-12-31T01:24:14;14.30;96.60
19847;DHT22;10084;50.518;8.588;2022-12-31T01:26:41;14.30;97.10
19847;DHT22;10084;50.518;8.588;2022-12-31T01:29:08;14.30;97.20
19847;DHT22;10084;50.518;8.588;2022-12-31T01:31:35;14.30;97.30
19847;DHT22;10084;50.518;8.588;2022-12-31T01:34:01;14.30;97.40
19847;DHT22;10084;50.518;8.588;2022-12-31T01:36:29;14.30;98.20
19847;DHT22;10084;50.518;8.588;2022-12-31T01:38:56;14.30;98.50
19847;DHT22;10084;50.518;8.588;2022-12-31T01:41:30;14.30;99.10
19847;DHT22;10084;50.518;8.588;2022-12-31T01:44:46;14.30;99.40
19847;DHT22;10084;50.518;8.588;2022-12-31T01:46:47;14.40;99.90
19847;DHT22;10084;50.518;8.588;2022-12-31T01:49:25;14.40;99.50
19847;DHT22;10084;50.518;8.588;2022-12-31T01:52:06;14.40;99.30
19847;DHT22;10084;50.518;8.588;2022-12-31T01:54:37;14.50;99.70
19847;DHT22;10084;50.518;8.588;2022-12-31T01:57:04;14.40;99.20
19847;DHT22;10084;50.518;8.588;2022-12-31T01:59:32;14.40;99.10
19847;DHT22;10084;50.518;8.588;2022-12-31T02:01:58;14.40;97.40
19847;DHT22;10084;50.518;8.588;2022-12-31T02:04:25;14.50;97.20
19847;DHT22;10084;50.518;8.588;2022-12-31T02:07:00;14.50;97.30
19847;DHT22;10084;50.518;8.588;2022-12-31T02:09:26;14.50;97.10
19847;DHT22;10084;50.518;8.588;2022-12-31T02:11:53;14.60;97.20
19847;DHT22;10084;50.518;8.588;2022-12-31T02:14:26;14.60;97.60
19847;DHT22;10084;50.518;8.588;2022-12-31T02:22:51;14.60;96.90
19847;DHT22;10084;50.518;8.588;2022-12-31T02:31:30;14.70;98.90
19847;DHT22;10084;50.518;8.588;2022-12-31T02:34:01;14.70;98.80
19847;DHT22;10084;50.518;8.588;2022-12-31T02:36:33;14.80;99.10
19847;DHT22;10084;50.518;8.588;2022-12-31T02:39:03;14.80;99.10
19847;DHT22;10084;50.518;8.588;2022-12-31T02:41:29;14.80;99.20
19847;DHT22;10084;50.518;8.588;2022-12-31T02:49:45;14.80;97.40
19847;DHT22;10084;50.518;8.588;2022-12-31T02:55:08;14.80;98.00
19847;DHT22;10084;50.518;8.588;2022-12-31T03:00:04;14.80;98.70
19847;DHT22;10084;50.518;8.588;2022-12-31T03:02:50;14.90;99.00
19847;DHT22;10084;50.518;8.588;2022-12-31T03:05:18;15.00;98.10
19847;DHT22;10084;50.518;8.588;2022-12-31T03:07:45;15.00;98.20
19847;DHT22;10084;50.518;8.588;2022-12-31T03:10:11;15.00;97.20
19847;DHT22;10084;50.518;8.588;2022-12-31T03:12:38;15.10;98.70
19847;DHT22;10084;50.518;8.588;2022-12-31T03:20:12;15.20;97.20
19847;DHT22;10084;50.518;8.588;2022-12-31T03:22:57;15.20;98.40
19847;DHT22;10084;50.518;8.588;2022-12-31T03:25:23;15.30;98.30
19847;DHT22;10084;50.518;8.588;2022-12-31T03:28:08;15.40;98.50
19847;DHT22;10084;50.518;8.588;2022-12-31T03:30:36;15.40;98.50
19847;DHT22;10084;50.518;8.588;2022-12-31T03:33:04;15.40;98.30
19847;DHT22;10084;50.518;8.588;2022-12-31T03:35:32;15.50;97.90
19847;DHT22;10084;50.518;8.588;2022-12-31T03:37:59;15.50;98.00
19847;DHT22;10084;50.518;8.588;2022-12-31T03:40:26;15.50;97.90
19847;DHT22;10084;50.518;8.588;2022-12-31T03:42:52;15.60;97.90
19847;DHT22;10084;50.518;8.588;2022-12-31T03:45:18;15.60;97.90
19847;DHT22;10084;50.518;8.588;2022-12-31T03:47:44;15.60;97.70
19847;DHT22;10084;50.518;8.588;2022-12-31T03:50:11;15.60;97.60
19847;DHT22;10084;50.518;8.588;2022-12-31T03:52:38;15.70;97.60
19847;DHT22;10084;50.518;8.588;2022-12-31T03:55:05;15.70;97.50
19847;DHT22;10084;50.518;8.588;2022-12-31T03:57:31;15.70;97.50
19847;DHT22;10084;50.518;8.588;2022-12-31T03:59:57;15.70;97.40
19847;DHT22;10084;50.518;8.588;2022-12-31T04:02:24;15.70;97.30
19847;DHT22;10084;50.518;8.588;2022-12-31T04:04:49;15.70;97.20
19847;DHT22;10084;50.518;8.588;2022-12-31T04:07:15;15.70;97.10
19847;DHT22;10084;50.518;8.588;2022-12-31T04:09:41;15.70;97.50
19847;DHT22;10084;50.518;8.588;2022-12-31T04:12:06;15.70;97.20
19847;DHT22;10084;50.518;8.588;2022-12-31T04:14:32;15.70;97.30
19847;DHT22;10084;50.518;8.588;2022-12-31T04:16:58;15.70;97.20
19847;DHT22;10084;50.518;8.588;2022-12-31T04:19:23;15.70;97.10
19847;DHT22;10084;50.518;8.588;2022-12-31T04:21:49;15.70;97.30
19847;DHT22;10084;50.518;8.588;2022-12-31T04:24:15;15.60;97.10
19847;DHT22;10084;50.518;8.588;2022-12-31T04:26:41;15.60;97.10
19847;DHT22;10084;50.518;8.588;2022-12-31T04:29:09;15.60;97.20
19847;DHT22;10084;50.518;8.588;2022-12-31T04:31:34;15.60;97.40
19847;DHT22;10084;50.518;8.588;2022-12-31T04:34:00;15.60;97.20
19847;DHT22;10084;50.518;8.588;2022-12-31T04:36:26;15.60;97.50
19847;DHT22;10084;50.518;8.588;2022-12-31T04:38:52;15.50;97.90
19847;DHT22;10084;50.518;8.588;2022-12-31T04:41:18;15.50;97.70
19847;DHT22;10084;50.518;8.588;2022-12-31T04:44:03;15.50;97.60
19847;DHT22;10084;50.518;8.588;2022-12-31T04:46:31;15.50;97.40
19847;DHT22;10084;50.518;8.588;2022-12-31T04:48:57;15.60;97.70
19847;DHT22;10084;50.518;8.588;2022-12-31T04:51:25;15.50;97.80
19847;DHT22;10084;50.518;8.588;2022-12-31T04:53:51;15.50;98.20
19847;DHT22;10084;50.518;8.588;2022-12-31T04:56:17;15.50;98.00
19847;DHT22;10084;50.518;8.588;2022-12-31T04:58:43;15.60;98.20
19847;DHT22;10084;50.518;8.588;2022-12-31T05:01:10;15.50;97.90
19847;DHT22;10084;50.518;8.588;2022-12-31T05:03:35;15.60;98.10
19847;DHT22;10084;50.518;8.588;2022-12-31T05:06:16;15.60;98.20
19847;DHT22;10084;50.518;8.588;2022-12-31T05:08:42;15.60;97.70
19847;DHT22;10084;50.518;8.588;2022-12-31T05:11:08;15.60;97.90
19847;DHT22;10084;50.518;8.588;2022-12-31T05:13:35;15.60;97.70
19847;DHT22;10084;50.518;8.588;2022-12-31T05:16:02;15.60;97.40
19847;DHT22;10084;50.518;8.588;2022-12-31T05:18:28;15.60;97.50
19847;DHT22;10084;50.518;8.588;2022-12-31T05:20:54;15.70;97.40
19847;DHT22;10084;50.518;8.588;2022-12-31T05:23:20;15.70;97.70
19847;DHT22;10084;50.518;8.588;2022-12-31T05:25:46;15.70;98.00
19847;DHT22;10084;50.518;8.588;2022-12-31T05:28:13;15.70;97.90
19847;DHT22;10084;50.518;8.588;2022-12-31T05:30:39;15.80;98.00
19847;DHT22;10084;50.518;8.588;2022-12-31T05:33:05;15.80;98.20
19847;DHT22;10084;50.518;8.588;2022-12-31T05:35:31;15.80;97.70
19847;DHT22;10084;50.518;8.588;2022-12-31T05:37:58;15.80;97.80
19847;DHT22;10084;50.518;8.588;2022-12-31T05:40:24;15.80;97.80
19847;DHT22;10084;50.518;8.588;2022-12-31T05:42:50;15.90;98.10
19847;DHT22;10084;50.518;8.588;2022-12-31T05:45:15;15.90;97.70
19847;DHT22;10084;50.518;8.588;2022-12-31T05:47:44;15.90;97.60
19847;DHT22;10084;50.518;8.588;2022-12-31T05:50:11;15.90;97.20
19847;DHT22;10084;50.518;8.588;2022-12-31T05:52:37;15.90;97.20
19847;DHT22;10084;50.518;8.588;2022-12-31T05:55:04;15.90;96.90
19847;DHT22;10084;50.518;8.588;2022-12-31T05:57:30;15.90;97.00
19847;DHT22;10084;50.518;8.588;2022-12-31T05:59:55;15.90;97.10
19847;DHT22;10084;50.518;8.588;2022-12-31T06:02:22;16.00;97.10
19847;DHT22;10084;50.518;8.588;2022-12-31T06:04:48;16.00;97.00
19847;DHT22;10084;50.518;8.588;2022-12-31T06:07:14;16.00;96.90
19847;DHT22;10084;50.518;8.588;2022-12-31T06:09:40;16.00;97.10
19847;DHT22;10084;50.518;8.588;2022-12-31T06:12:06;16.00;96.90
19847;DHT22;10084;50.518;8.588;2022-12-31T06:14:32;16.00;96.90
19847;DHT22;10084;50.518;8.588;2022-12-31T06:16:58;16.10;96.80
19847;DHT22;10084;50.518;8.588;2022-12-31T06:19:24;16.10;96.80
19847;DHT22;10084;50.518;8.588;2022-12-31T06:21:49;16.10;96.90
19847;DHT22;10084;50.518;8.588;2022-12-31T06:24:15;16.10;96.70
19847;DHT22;10084;50.518;8.588;2022-12-31T06:26:41;16.10;96.80
19847;DHT22;10084;50.518;8.588;2022-12-31T06:29:08;16.10;96.50
19847;DHT22;10084;50.518;8.588;2022-12-31T06:31:35;16.10;96.30
19847;DHT22;10084;50.518;8.588;2022-12-31T06:34:01;16.10;96.40
19847;DHT22;10084;50.518;8.588;2022-12-31T06:36:27;16.10;96.40
19847;DHT22;10084;50.518;8.588;2022-12-31T06:38:53;16.10;96.50
19847;DHT22;10084;50.518;8.588;2022-12-31T06:41:21;16.10;96.90
19847;DHT22;10084;50.518;8.588;2022-12-31T06:43:47;16.10;96.90
19847;DHT22;10084;50.518;8.588;2022-12-31T06:46:15;16.10;96.90
19847;DHT22;10084;50.518;8.588;2022-12-31T06:48:41;16.10;96.70
19847;DHT22;10084;50.518;8.588;2022-12-31T06:51:19;16.10;96.50
19847;DHT22;10084;50.518;8.588;2022-12-31T06:53:47;16.10;96.50
19847;DHT22;10084;50.518;8.588;2022-12-31T06:56:19;16.10;96.60
19847;DHT22;10084;50.518;8.588;2022-12-31T06:58:45;16.10;96.50
19847;DHT22;10084;50.518;8.588;2022-12-31T07:01:48;16.10;96.60
19847;DHT22;10084;50.518;8.588;2022-12-31T07:08:07;16.20;96.50
19847;DHT22;10084;50.518;8.588;2022-12-31T07:10:58;16.20;96.80
19847;DHT22;10084;50.518;8.588;2022-12-31T07:13:54;16.30;96.80
19847;DHT22;10084;50.518;8.588;2022-12-31T07:16:33;16.30;96.50
19847;DHT22;10084;50.518;8.588;2022-12-31T07:19:52;16.30;96.20
19847;DHT22;10084;50.518;8.588;2022-12-31T07:21:57;16.30;96.60
19847;DHT22;10084;50.518;8.588;2022-12-31T07:24:23;16.40;96.50
19847;DHT22;10084;50.518;8.588;2022-12-31T07:27:01;16.40;96.80
19847;DHT22;10084;50.518;8.588;2022-12-31T07:37:50;16.50;97.60
19847;DHT22;10084;50.518;8.588;2022-12-31T07:43:13;16.60;96.80
19847;DHT22;10084;50.518;8.588;2022-12-31T07:48:45;16.60;97.40
19847;DHT22;10084;50.518;8.588;2022-12-31T07:51:11;16.60;95.90
19847;DHT22;10084;50.518;8.588;2022-12-31T07:53:38;16.60;96.90
19847;DHT22;10084;50.518;8.588;2022-12-31T07:56:06;16.70;95.80
19847;DHT22;10084;50.518;8.588;2022-12-31T08:01:40;16.70;96.20
19847;DHT22;10084;50.518;8.588;2022-12-31T08:04:27;16.70;95.70
19847;DHT22;10084;50.518;8.588;2022-12-31T08:12:38;16.80;96.50
19847;DHT22;10084;50.518;8.588;2022-12-31T08:15:12;16.80;96.30
19847;DHT22;10084;50.518;8.588;2022-12-31T08:17:38;16.80;96.10
19847;DHT22;10084;50.518;8.588;2022-12-31T08:20:05;16.80;96.30
19847;DHT22;10084;50.518;8.588;2022-12-31T08:22:43;16.90;96.40
19847;DHT22;10084;50.518;8.588;2022-12-31T08:25:19;16.90;96.60
19847;DHT22;10084;50.518;8.588;2022-12-31T08:33:37;16.90;96.60
19847;DHT22;10084;50.518;8.588;2022-12-31T08:36:26;16.90;97.10
19847;DHT22;10084;50.518;8.588;2022-12-31T08:41:44;17.00;96.10
19847;DHT22;10084;50.518;8.588;2022-12-31T08:49:32;17.10;94.40
19847;DHT22;10084;50.518;8.588;2022-12-31T08:51:59;17.10;93.90
19847;DHT22;10084;50.518;8.588;2022-12-31T08:54:25;17.20;93.50
19847;DHT22;10084;50.518;8.588;2022-12-31T08:57:16;17.20;92.80
19847;DHT22;10084;50.518;8.588;2022-12-31T09:00:06;17.20;91.80
19847;DHT22;10084;50.518;8.588;2022-12-31T09:05:31;17.20;91.20
19847;DHT22;10084;50.518;8.588;2022-12-31T09:11:03;17.20;90.90
19847;DHT22;10084;50.518;8.588;2022-12-31T09:13:56;17.20;90.60
19847;DHT22;10084;50.518;8.588;2022-12-31T09:19:20;17.10;90.90
19847;DHT22;10084;50.518;8.588;2022-12-31T09:21:45;17.10;90.00
19847;DHT22;10084;50.518;8.588;2022-12-31T09:24:13;17.20;90.20
19847;DHT22;10084;50.518;8.588;2022-12-31T09:32:29;17.20;90.30
19847;DHT22;10084;50.518;8.588;2022-12-31T09:35:13;17.10;91.00
19847;DHT22;10084;50.518;8.588;2022-12-31T09:38:09;17.10;89.50
19847;DHT22;10084;50.518;8.588;2022-12-31T09:46:08;17.30;90.50
19847;DHT22;10084;50.518;8.588;2022-12-31T09:49:14;17.30;89.20
19847;DHT22;10084;50.518;8.588;2022-12-31T09:54:54;16.90;88.30
19847;DHT22;10084;50.518;8.588;2022-12-31T09:57:48;17.40;85.60
19847;DHT22;10084;50.518;8.588;2022-12-31T10:00:32;17.40;85.60
19847;DHT22;10084;50.518;8.588;2022-12-31T10:03:09;17.40;86.00
19847;DHT22;10084;50.518;8.588;2022-12-31T10:06:04;17.50;86.00
19847;DHT22;10084;50.518;8.588;2022-12-31T10:11:56;17.50;86.20
19847;DHT22;10084;50.518;8.588;2022-12-31T10:14:47;17.60;87.10
19847;DHT22;10084;50.518;8.588;2022-12-31T10:17:48;17.60;88.10
19847;DHT22;10084;50.518;8.588;2022-12-31T10:26:24;17.80;90.50
19847;DHT22;10084;50.518;8.588;2022-12-31T10:29:41;17.90;90.10
19847;DHT22;10084;50.518;8.588;2022-12-31T10:37:16;18.50;99.60
19847;DHT22;10084;50.518;8.588;2022-12-31T10:45:23;18.70;98.10
19847;DHT22;10084;50.518;8.588;2022-12-31T10:59:38;18.60;97.50
19847;DHT22;10084;50.518;8.588;2022-12-31T11:08:12;18.70;96.90
19847;DHT22;10084;50.518;8.588;2022-12-31T11:16:30;18.80;96.80
19847;DHT22;10084;50.518;8.588;2022-12-31T11:19:26;18.80;94.70
19847;DHT22;10084;50.518;8.588;2022-12-31T11:25:18;18.90;97.20
19847;DHT22;10084;50.518;8.588;2022-12-31T11:27:49;19.00;97.30
19847;DHT22;10084;50.518;8.588;2022-12-31T11:33:51;19.00;96.40
19847;DHT22;10084;50.518;8.588;2022-12-31T11:39:53;19.00;93.90
19847;DHT22;10084;50.518;8.588;2022-12-31T11:48:03;19.00;94.60
19847;DHT22;10084;50.518;8.588;2022-12-31T11:50:50;18.90;94.80
19847;DHT22;10084;50.518;8.588;2022-12-31T11:56:04;18.90;96.30
19847;DHT22;10084;50.518;8.588;2022-12-31T11:58:34;18.90;96.50
19847;DHT22;10084;50.518;8.588;2022-12-31T12:03:51;18.90;97.00
19847;DHT22;10084;50.518;8.588;2022-12-31T12:06:23;18.90;95.50
19847;DHT22;10084;50.518;8.588;2022-12-31T12:08:58;18.90;96.00
19847;DHT22;10084;50.518;8.588;2022-12-31T12:11:26;18.90;96.50
19847;DHT22;10084;50.518;8.588;2022-12-31T12:16:21;18.80;98.10
19847;DHT22;10084;50.518;8.588;2022-12-31T12:18:48;19.00;95.90
19847;DHT22;10084;50.518;8.588;2022-12-31T12:21:22;19.00;95.60
19847;DHT22;10084;50.518;8.588;2022-12-31T12:26:36;19.10;95.50
19847;DHT22;10084;50.518;8.588;2022-12-31T12:29:16;19.10;95.30
19847;DHT22;10084;50.518;8.588;2022-12-31T12:31:42;19.10;95.20
19847;DHT22;10084;50.518;8.588;2022-12-31T12:34:24;19.10;95.30
19847;DHT22;10084;50.518;8.588;2022-12-31T12:36:50;19.10;95.20
19847;DHT22;10084;50.518;8.588;2022-12-31T12:39:28;19.10;95.10
19847;DHT22;10084;50.518;8.588;2022-12-31T12:42:03;19.10;95.10
19847;DHT22;10084;50.518;8.588;2022-12-31T12:44:29;19.10;95.00
19847;DHT22;10084;50.518;8.588;2022-12-31T12:46:57;19.10;95.10
19847;DHT22;10084;50.518;8.588;2022-12-31T12:49:29;19.20;95.00
19847;DHT22;10084;50.518;8.588;2022-12-31T12:55:08;19.40;94.90
19847;DHT22;10084;50.518;8.588;2022-12-31T13:00:40;19.70;95.10
19847;DHT22;10084;50.518;8.588;2022-12-31T13:03:31;19.90;95.20
19847;DHT22;10084;50.518;8.588;2022-12-31T13:09:26;20.20;95.50
19847;DHT22;10084;50.518;8.588;2022-12-31T13:12:07;20.30;95.60
19847;DHT22;10084;50.518;8.588;2022-12-31T13:15:07;20.40;95.70
19847;DHT22;10084;50.518;8.588;2022-12-31T13:18:14;20.50;95.80
19847;DHT22;10084;50.518;8.588;2022-12-31T13:21:26;20.60;96.40
19847;DHT22;10084;50.518;8.588;2022-12-31T13:24:04;20.70;96.70
19847;DHT22;10084;50.518;8.588;2022-12-31T13:26:42;20.60;96.50
19847;DHT22;10084;50.518;8.588;2022-12-31T13:29:19;20.50;96.70
19847;DHT22;10084;50.518;8.588;2022-12-31T13:31:47;20.30;96.70
19847;DHT22;10084;50.518;8.588;2022-12-31T13:34:24;20.30;96.80
19847;DHT22;10084;50.518;8.588;2022-12-31T13:36:53;20.20;96.70
19847;DHT22;10084;50.518;8.588;2022-12-31T13:39:27;20.10;96.70
19847;DHT22;10084;50.518;8.588;2022-12-31T13:42:10;20.00;96.70
19847;DHT22;10084;50.518;8.588;2022-12-31T13:44:44;20.00;96.60
19847;DHT22;10084;50.518;8.588;2022-12-31T13:47:13;19.90;96.60
19847;DHT22;10084;50.518;8.588;2022-12-31T13:49:47;19.70;96.60
19847;DHT22;10084;50.518;8.588;2022-12-31T13:53:12;19.60;96.60
19847;DHT22;10084;50.518;8.588;2022-12-31T13:55:29;19.60;96.60
19847;DHT22;10084;50.518;8.588;2022-12-31T14:03:46;19.50;96.60
19847;DHT22;10084;50.518;8.588;2022-12-31T14:06:28;19.40;96.50
19847;DHT22;10084;50.518;8.588;2022-12-31T14:08:56;19.40;96.60
19847;DHT22;10084;50.518;8.588;2022-12-31T14:11:49;19.30;96.70
19847;DHT22;10084;50.518;8.588;2022-12-31T14:19:46;19.10;96.50
19847;DHT22;10084;50.518;8.588;2022-12-31T14:49:12;17.90;94.80
19847;DHT22;10084;50.518;8.588;2022-12-31T14:51:40;17.80;93.60
19847;DHT22;10084;50.518;8.588;2022-12-31T14:54:25;17.70;93.30
19847;DHT22;10084;50.518;8.588;2022-12-31T14:56:51;17.60;92.90
19847;DHT22;10084;50.518;8.588;2022-12-31T14:59:50;17.50;92.10
19847;DHT22;10084;50.518;8.588;2022-12-31T15:02:46;17.40;92.10
19847;DHT22;10084;50.518;8.588;2022-12-31T15:05:16;17.30;92.00
19847;DHT22;10084;50.518;8.588;2022-12-31T15:07:54;17.20;92.10
19847;DHT22;10084;50.518;8.588;2022-12-31T15:10:24;17.20;92.10
19847;DHT22;10084;50.518;8.588;2022-12-31T15:13:06;17.10;91.90
19847;DHT22;10084;50.518;8.588;2022-12-31T15:23:56;16.90;92.00
19847;DHT22;10084;50.518;8.588;2022-12-31T15:26:24;16.90;92.00
19847;DHT22;10084;50.518;8.588;2022-12-31T15:31:28;16.80;92.10
19847;DHT22;10084;50.518;8.588;2022-12-31T15:33:59;16.80;91.90
19847;DHT22;10084;50.518;8.588;2022-12-31T15:36:37;16.70;91.90
19847;DHT22;10084;50.518;8.588;2022-12-31T15:41:48;16.70;91.90
19847;DHT22;10084;50.518;8.588;2022-12-31T15:50:17;16.50;91.80
19847;DHT22;10084;50.518;8.588;2022-12-31T15:52:51;16.50;91.90
19847;DHT22;10084;50.518;8.588;2022-12-31T15:55:32;16.40;92.00
19847;DHT22;10084;50.518;8.588;2022-12-31T15:58:04;16.40;92.00
19847;DHT22;10084;50.518;8.588;2022-12-31T16:03:44;16.30;92.20
19847;DHT22;10084;50.518;8.588;2022-12-31T16:06:12;16.20;92.20
19847;DHT22;10084;50.518;8.588;2022-12-31T16:08:42;16.20;91.90
19847;DHT22;10084;50.518;8.588;2022-12-31T16:11:09;16.20;91.90
19847;DHT22;10084;50.518;8.588;2022-12-31T16:13:40;16.10;92.00
19847;DHT22;10084;50.518;8.588;2022-12-31T16:16:28;16.20;92.00
19847;DHT22;10084;50.518;8.588;2022-12-31T16:18:55;16.20;92.00
19847;DHT22;10084;50.518;8.588;2022-12-31T16:23:54;16.20;92.10
19847;DHT22;10084;50.518;8.588;2022-12-31T16:26:23;16.20;92.00
19847;DHT22;10084;50.518;8.588;2022-12-31T16:28:55;16.20;92.10
19847;DHT22;10084;50.518;8.588;2022-12-31T16:31:27;16.20;92.00
19847;DHT22;10084;50.518;8.588;2022-12-31T16:34:09;16.20;92.00
19847;DHT22;10084;50.518;8.588;2022-12-31T16:36:36;16.20;92.00
19847;DHT22;10084;50.518;8.588;2022-12-31T16:41:50;16.20;92.00
19847;DHT22;10084;50.518;8.588;2022-12-31T16:44:25;16.20;92.00
19847;DHT22;10084;50.518;8.588;2022-12-31T16:46:58;16.30;92.00
19847;DHT22;10084;50.518;8.588;2022-12-31T16:49:26;16.30;92.00
19847;DHT22;10084;50.518;8.588;2022-12-31T16:52:03;16.30;92.00
19847;DHT22;10084;50.518;8.588;2022-12-31T16:54:33;16.30;92.00
19847;DHT22;10084;50.518;8.588;2022-12-31T16:57:00;16.30;91.90
19847;DHT22;10084;50.518;8.588;2022-12-31T16:59:30;16.30;91.90
19847;DHT22;10084;50.518;8.588;2022-12-31T17:01:58;16.40;91.90
19847;DHT22;10084;50.518;8.588;2022-12-31T17:04:26;16.40;91.90
19847;DHT22;10084;50.518;8.588;2022-12-31T17:06:52;16.40;92.10
19847;DHT22;10084;50.518;8.588;2022-12-31T17:09:30;16.40;91.80
19847;DHT22;10084;50.518;8.588;2022-12-31T17:12:14;16.40;91.80
19847;DHT22;10084;50.518;8.588;2022-12-31T17:14:49;16.40;91.80
19847;DHT22;10084;50.518;8.588;2022-12-31T17:17:23;16.40;91.80
19847;DHT22;10084;50.518;8.588;2022-12-31T17:19:55;16.40;91.80
19847;DHT22;10084;50.518;8.588;2022-12-31T17:25:07;16.40;91.80
19847;DHT22;10084;50.518;8.588;2022-12-31T17:27:39;16.30;91.80
19847;DHT22;10084;50.518;8.588;2022-12-31T17:30:41;16.40;91.80
19847;DHT22;10084;50.518;8.588;2022-12-31T17:35:34;16.30;91.80
19847;DHT22;10084;50.518;8.588;2022-12-31T17:40:50;16.30;91.80
19847;DHT22;10084;50.518;8.588;2022-12-31T17:43:20;16.30;91.80
19847;DHT22;10084;50.518;8.588;2022-12-31T17:45:49;16.20;91.80
19847;DHT22;10084;50.518;8.588;2022-12-31T17:48:17;16.20;91.90
19847;DHT22;10084;50.518;8.588;2022-12-31T17:53:16;16.20;91.80
19847;DHT22;10084;50.518;8.588;2022-12-31T17:55:44;16.20;91.90
19847;DHT22;10084;50.518;8.588;2022-12-31T17:58:19;16.20;91.80
19847;DHT22;10084;50.518;8.588;2022-12-31T18:00:47;16.20;91.80
19847;DHT22;10084;50.518;8.588;2022-12-31T18:03:13;16.20;91.80
19847;DHT22;10084;50.518;8.588;2022-12-31T18:05:39;16.10;91.70
19847;DHT22;10084;50.518;8.588;2022-12-31T18:08:04;16.20;91.80
19847;DHT22;10084;50.518;8.588;2022-12-31T18:10:34;16.20;91.70
19847;DHT22;10084;50.518;8.588;2022-12-31T18:13:03;16.10;91.70
19847;DHT22;10084;50.518;8.588;2022-12-31T18:15:29;16.10;91.80
19847;DHT22;10084;50.518;8.588;2022-12-31T18:17:55;16.10;91.80
19847;DHT22;10084;50.518;8.588;2022-12-31T18:20:21;16.10;91.70
19847;DHT22;10084;50.518;8.588;2022-12-31T18:22:47;16.10;91.80
19847;DHT22;10084;50.518;8.588;2022-12-31T18:25:17;16.10;91.80
19847;DHT22;10084;50.518;8.588;2022-12-31T18:27:43;16.10;91.80
19847;DHT22;10084;50.518;8.588;2022-12-31T18:30:10;16.00;91.70
19847;DHT22;10084;50.518;8.588;2022-12-31T18:32:37;16.00;91.70
19847;DHT22;10084;50.518;8.588;2022-12-31T18:35:10;16.00;91.70
19847;DHT22;10084;50.518;8.588;2022-12-31T18:37:37;16.00;91.60
19847;DHT22;10084;50.518;8.588;2022-12-31T18:40:03;16.00;91.60
19847;DHT22;10084;50.518;8.588;2022-12-31T18:42:29;16.00;91.60
19847;DHT22;10084;50.518;8.588;2022-12-31T18:44:55;16.00;91.60
19847;DHT22;10084;50.518;8.588;2022-12-31T18:47:20;16.00;91.60
19847;DHT22;10084;50.518;8.588;2022-12-31T18:49:48;16.00;91.60
19847;DHT22;10084;50.518;8.588;2022-12-31T18:52:21;16.00;91.60
19847;DHT22;10084;50.518;8.588;2022-12-31T18:54:48;16.00;91.60
19847;DHT22;10084;50.518;8.588;2022-12-31T18:57:14;16.00;91.60
19847;DHT22;10084;50.518;8.588;2022-12-31T18:59:41;16.00;91.60
19847;DHT22;10084;50.518;8.588;2022-12-31T19:02:18;15.90;91.60
19847;DHT22;10084;50.518;8.588;2022-12-31T19:04:45;15.90;91.50
19847;DHT22;10084;50.518;8.588;2022-12-31T19:07:10;15.90;91.60
19847;DHT22;10084;50.518;8.588;2022-12-31T19:09:36;15.90;91.60
19847;DHT22;10084;50.518;8.588;2022-12-31T19:12:02;15.90;91.60
19847;DHT22;10084;50.518;8.588;2022-12-31T19:14:28;15.90;91.50
19847;DHT22;10084;50.518;8.588;2022-12-31T19:16:54;15.90;91.50
19847;DHT22;10084;50.518;8.588;2022-12-31T19:19:20;15.90;91.50
19847;DHT22;10084;50.518;8.588;2022-12-31T19:21:46;15.90;91.50
19847;DHT22;10084;50.518;8.588;2022-12-31T19:24:15;15.90;91.50
19847;DHT22;10084;50.518;8.588;2022-12-31T19:26:42;15.90;91.40
19847;DHT22;10084;50.518;8.588;2022-12-31T19:29:16;15.90;91.40
19847;DHT22;10084;50.518;8.588;2022-12-31T19:31:43;15.90;91.40
19847;DHT22;10084;50.518;8.588;2022-12-31T19:34:09;15.90;91.40
19847;DHT22;10084;50.518;8.588;2022-12-31T19:36:35;15.90;91.40
19847;DHT22;10084;50.518;8.588;2022-12-31T19:39:02;15.90;91.40
19847;DHT22;10084;50.518;8.588;2022-12-31T19:41:28;15.90;91.30
19847;DHT22;10084;50.518;8.588;2022-12-31T19:43:54;15.90;91.40
19847;DHT22;10084;50.518;8.588;2022-12-31T19:46:19;15.90;91.40
19847;DHT22;10084;50.518;8.588;2022-12-31T19:48:46;15.90;91.40
19847;DHT22;10084;50.518;8.588;2022-12-31T19:51:15;15.90;91.30
19847;DHT22;10084;50.518;8.588;2022-12-31T19:53:42;15.90;91.30
19847;DHT22;10084;50.518;8.588;2022-12-31T19:56:16;15.90;91.30
19847;DHT22;10084;50.518;8.588;2022-12-31T19:58:42;15.90;91.30
19847;DHT22;10084;50.518;8.588;2022-12-31T20:01:18;15.90;91.30
19847;DHT22;10084;50.518;8.588;2022-12-31T20:03:45;15.90;91.30